Time;durP1;ratioP1;P1;durP2;ratioP2;P2;SDS_P1;SDS_P2;PMS_P1;PMS_P2;Temp;Humidity;BMP_temperature;BMP_pressure;BME280_temperature;BME280_humidity;BME280_pressure;Samples;Min_cycle;Max_cycle;Signal;HPM_P1;HPM_P2
2023/10/04 00:01:38;;;;;;;8.43;4.60;;;;;;;15.28;65.81;98939.91;5072269;28;20272;-57
2023/10/04 00:04:05;;;;;;;8.02;4.40;;;;;;;15.48;65.61;98972.25;5072178;28;20189;-57
2023/10/04 00:06:31;;;;;;;8.98;4.53;;;;;;;15.48;65.65;98961.81;5072118;28;20655;-57
2023/10/04 00:09:03;;;;;;;6.55;4.38;;;;;;;15.15;66.08;98918.34;5072054;28;20254;-57
2023/10/04 00:11:31;;;;;;;7.28;4.88;;;;;;;15.37;66.39;98964.44;5110375;28;20284;-57
2023/10/04 00:13:57;;;;;;;8.43;4.15;;;;;;;15.33;65.88;98936.97;5115038;28;20334;-57
2023/10/04 00:16:22;;;;;;;7.78;4.07;;;;;;;15.32;65.60;98920.50;5114764;28;20184;-57
2023/10/04 00:18:49;;;;;;;8.13;4.55;;;;;;;15.49;65.56;98940.84;5115061;28;20175;-57
2023/10/04 00:21:15;;;;;;;6.45;3.90;;;;;;;15.37;65.65;98907.91;5115046;28;20164;-57
2023/10/04 00:23:41;;;;;;;8.20;4.82;;;;;;;15.49;65.72;98916.53;5114883;28;20316;-57
2023/10/04 00:26:07;;;;;;;8.35;4.60;;;;;;;15.61;65.65;98934.63;5114817;28;20646;-57
2023/10/04 00:28:34;;;;;;;7.05;4.05;;;;;;;15.52;65.67;98916.28;5114855;28;20188;-57
2023/10/04 00:30:59;;;;;;;6.15;4.10;;;;;;;15.52;65.65;98916.28;5114881;28;20260;-57
2023/10/04 00:33:26;;;;;;;10.82;4.80;;;;;;;15.53;65.59;98921.41;5114773;28;20271;-57
2023/10/04 00:35:52;;;;;;;8.13;5.00;;;;;;;15.47;66.06;98924.50;5114729;28;20175;-57
2023/10/04 00:38:19;;;;;;;11.70;4.60;;;;;;;15.32;66.14;98909.19;5051622;28;20722;-57
2023/10/04 00:40:47;;;;;;;6.45;4.93;;;;;;;15.46;66.71;98943.69;5051362;28;20190;-57
2023/10/04 00:43:15;;;;;;;13.70;5.35;;;;;;;15.16;67.30;98913.97;5051461;28;20676;-57
2023/10/04 00:45:47;;;;;;;10.73;5.20;;;;;;;15.22;67.99;98940.38;5051340;28;20209;-57
2023/10/04 00:48:18;;;;;;;9.75;5.25;;;;;;;15.02;68.61;98927.25;5051309;28;20672;-57
2023/10/04 00:50:44;;;;;;;11.15;5.07;;;;;;;15.06;68.58;98939.09;5051378;28;20268;-57
2023/10/04 00:53:16;;;;;;;14.48;5.85;;;;;;;14.91;69.21;98922.88;5051369;28;20371;-57
2023/10/04 00:55:43;;;;;;;9.48;5.35;;;;;;;14.80;69.41;98909.84;5051243;28;20170;-57
2023/10/04 00:58:11;;;;;;;7.78;4.82;;;;;;;15.01;69.23;98925.59;5051206;28;20251;-57
2023/10/04 01:00:41;;;;;;;8.52;5.22;;;;;;;15.19;68.67;98934.59;5051258;28;20182;-57
2023/10/04 01:03:07;;;;;;;11.15;5.47;;;;;;;15.27;68.18;98942.66;5051087;28;20219;-57
2023/10/04 01:05:35;;;;;;;9.07;5.68;;;;;;;15.09;68.07;98902.34;5050981;28;20315;-57
2023/10/04 01:08:01;;;;;;;12.05;5.30;;;;;;;15.32;67.12;98919.63;5051032;28;20185;-58
2023/10/04 01:10:35;;;;;;;10.98;5.40;;;;;;;15.43;67.46;98941.31;5112654;28;20175;-57
2023/10/04 01:13:05;;;;;;;10.13;5.35;;;;;;;15.40;67.51;98936.34;5114067;28;20265;-57
2023/10/04 01:15:36;;;;;;;13.23;5.63;;;;;;;15.30;67.69;98927.59;5113965;28;20213;-57
2023/10/04 01:18:06;;;;;;;10.07;5.40;;;;;;;15.03;68.35;98908.06;5113671;28;20500;-57
2023/10/04 01:20:37;;;;;;;8.52;4.95;;;;;;;15.27;68.20;98940.84;5113883;28;20178;-57
2023/10/04 01:23:05;;;;;;;11.77;5.28;;;;;;;15.11;69.22;98950.00;5113756;28;20192;-57
2023/10/04 01:25:38;;;;;;;11.00;6.10;;;;;;;15.15;68.86;98933.16;5113603;28;20238;-57
2023/10/04 01:28:18;;;;;;;10.63;6.15;;;;;;;15.17;68.76;98939.91;5113775;28;20179;-58
2023/10/04 01:30:47;;;;;;;11.27;5.95;;;;;;;15.04;68.62;98918.38;5113672;28;20652;-57
2023/10/04 01:33:16;;;;;;;11.43;5.70;;;;;;;15.10;68.83;98953.56;5113613;28;20172;-57
2023/10/04 01:35:59;;;;;;;15.55;6.93;;;;;;;14.85;69.40;98938.16;5113499;28;20202;-57
2023/10/04 01:38:26;;;;;;;14.98;6.78;;;;;;;14.66;70.03;98917.94;5113711;28;20171;-57
2023/10/04 01:40:52;;;;;;;13.48;6.47;;;;;;;14.40;70.17;98907.84;5113431;28;20203;-57
2023/10/04 01:43:19;;;;;;;10.57;5.82;;;;;;;14.49;70.75;98922.75;5113434;28;20232;-57
2023/10/04 01:45:51;;;;;;;11.65;6.13;;;;;;;14.38;70.65;98907.09;5113232;28;20215;-58
2023/10/04 01:48:20;;;;;;;11.85;5.95;;;;;;;14.40;71.38;98929.47;5113023;28;20629;-57
2023/10/04 01:50:52;;;;;;;10.57;5.60;;;;;;;14.40;71.70;98923.47;5113225;28;20191;-57
2023/10/04 01:53:20;;;;;;;12.43;6.10;;;;;;;14.51;71.29;98926.06;5113383;28;20605;-57
2023/10/04 01:55:45;;;;;;;10.05;6.03;;;;;;;14.14;72.87;98916.75;5113227;28;20180;-57
2023/10/04 01:58:10;;;;;;;10.52;5.60;;;;;;;14.18;73.55;98934.59;5112888;28;20669;-57
2023/10/04 02:00:36;;;;;;;11.88;6.95;;;;;;;14.31;72.67;98924.16;5113172;28;20353;-57
2023/10/04 02:03:02;;;;;;;13.77;5.40;;;;;;;14.02;73.37;98904.66;5113078;28;20316;-57
2023/10/04 02:05:37;;;;;;;9.48;5.93;;;;;;;14.23;73.06;98926.50;5113081;28;20208;-57
2023/10/04 02:08:07;;;;;;;12.15;6.07;;;;;;;14.30;72.85;98933.72;5112961;28;20175;-57
2023/10/04 02:10:33;;;;;;;8.70;5.70;;;;;;;14.23;72.57;98908.28;5113148;28;20646;-57
2023/10/04 02:12:58;;;;;;;12.52;5.95;;;;;;;14.55;71.73;98937.91;5112884;28;20309;-57
2023/10/04 02:15:24;;;;;;;11.48;6.40;;;;;;;14.37;71.97;98929.72;5069272;28;20295;-57
2023/10/04 02:17:50;;;;;;;12.43;5.32;;;;;;;14.53;71.36;98932.00;5069735;28;20560;-57
2023/10/04 02:20:28;;;;;;;13.98;6.20;;;;;;;14.41;71.89;98925.94;5069591;28;20303;-58
2023/10/04 02:22:54;;;;;;;12.73;6.10;;;;;;;14.25;72.84;98924.59;5069059;28;20176;-57
2023/10/04 02:25:20;;;;;;;10.88;5.78;;;;;;;14.07;74.07;98941.56;5069339;28;20372;-57
2023/10/04 02:27:46;;;;;;;11.90;6.15;;;;;;;13.93;74.73;98933.97;5069452;28;20185;-57
2023/10/04 02:30:21;;;;;;;13.07;6.43;;;;;;;13.79;75.25;98923.72;5069388;28;20275;-57
2023/10/04 02:32:48;;;;;;;17.33;6.55;;;;;;;13.78;75.93;98919.47;5069406;28;20249;-57
2023/10/04 02:35:21;;;;;;;11.93;6.28;;;;;;;13.62;76.90;98922.34;5069236;28;20353;-57
2023/10/04 02:37:47;;;;;;;12.00;6.13;;;;;;;13.66;76.52;98899.56;5069282;28;20177;-57
2023/10/04 02:40:16;;;;;;;10.68;6.60;;;;;;;13.88;75.69;98920.47;5069238;28;20276;-57
2023/10/04 02:42:44;;;;;;;10.32;5.70;;;;;;;13.96;75.31;98924.16;5069147;28;20252;-57
2023/10/04 02:45:18;;;;;;;10.55;6.25;;;;;;;13.98;75.55;98929.22;5069002;28;20670;-57
2023/10/04 02:47:43;;;;;;;13.80;7.00;;;;;;;13.96;75.18;98918.13;5112184;28;20192;-57
2023/10/04 02:50:10;;;;;;;15.40;7.15;;;;;;;13.69;75.89;98894.97;5112197;28;20179;-57
2023/10/04 02:52:36;;;;;;;10.57;6.95;;;;;;;13.82;76.28;98916.53;5112085;28;20179;-57
2023/10/04 02:55:02;;;;;;;14.00;6.43;;;;;;;13.83;76.50;98920.78;5111774;28;20179;-57
2023/10/04 02:57:28;;;;;;;12.13;6.63;;;;;;;13.63;77.36;98913.63;5112072;28;20168;-57
2023/10/04 02:59:54;;;;;;;11.88;6.40;;;;;;;13.71;76.80;98897.47;5112171;28;20274;-57
2023/10/04 03:02:21;;;;;;;13.35;6.30;;;;;;;13.97;75.50;98909.34;5112029;28;20172;-57
2023/10/04 03:04:49;;;;;;;12.63;5.80;;;;;;;13.99;76.01;98928.31;5111698;28;20238;-57
2023/10/04 03:07:15;;;;;;;11.18;6.57;;;;;;;13.89;75.42;98890.91;5111162;28;20171;-57
2023/10/04 03:09:42;;;;;;;13.82;6.65;;;;;;;13.77;76.17;98886.59;5111823;28;20575;-57
2023/10/04 03:12:10;;;;;;;14.68;6.60;;;;;;;13.49;77.49;98894.75;5111432;28;20665;-58
2023/10/04 03:14:36;;;;;;;13.30;6.15;;;;;;;13.53;77.34;98888.41;5111486;28;20244;-58
2023/10/04 03:17:02;;;;;;;11.52;6.32;;;;;;;13.55;77.53;98902.09;5111447;28;20763;-58
2023/10/04 03:19:28;;;;;;;9.77;5.30;;;;;;;13.62;77.04;98911.13;5111663;28;20555;-57
2023/10/04 03:21:53;;;;;;;11.68;6.20;;;;;;;13.56;77.01;98891.59;5068359;28;20188;-58
2023/10/04 03:24:19;;;;;;;10.13;5.63;;;;;;;13.73;77.07;98931.97;5028419;28;20193;-57
2023/10/04 03:26:44;;;;;;;10.35;5.90;;;;;;;13.80;76.54;98922.78;5028500;28;20214;-57
2023/10/04 03:29:11;;;;;;;11.48;5.30;;;;;;;13.70;77.39;98933.03;5028443;28;20753;-58
2023/10/04 03:31:39;;;;;;;13.07;5.93;;;;;;;13.60;77.55;98913.00;5028444;28;20610;-58
2023/10/04 03:34:07;;;;;;;12.18;5.93;;;;;;;13.72;76.71;98919.91;5027454;28;20197;-58
2023/10/04 03:36:34;;;;;;;10.50;5.90;;;;;;;13.51;77.81;98905.88;5028406;28;20282;-58
2023/10/04 03:39:00;;;;;;;10.18;5.45;;;;;;;13.79;77.17;98931.53;5028406;28;20190;-58
2023/10/04 03:41:25;;;;;;;10.15;4.57;;;;;;;13.76;76.86;98922.19;5028398;28;20666;-57
2023/10/04 03:43:52;;;;;;;12.38;5.55;;;;;;;13.74;76.86;98915.41;5028358;28;20348;-58
2023/10/04 03:46:18;;;;;;;10.05;5.32;;;;;;;13.92;75.87;98930.53;5028120;28;20213;-58
2023/10/04 03:48:48;;;;;;;9.50;5.00;;;;;;;13.92;76.36;98946.13;5028197;28;20178;-58
2023/10/04 03:51:19;;;;;;;13.13;6.13;;;;;;;13.34;78.38;98899.28;5028307;28;20206;-58
2023/10/04 03:53:46;;;;;;;13.40;6.25;;;;;;;13.53;78.87;98935.19;5062725;28;20198;-58
2023/10/04 03:56:12;;;;;;;11.07;6.03;;;;;;;13.43;78.87;98911.63;5105509;28;20578;-57
2023/10/04 03:58:38;;;;;;;8.20;5.38;;;;;;;13.27;80.08;98916.28;5111108;28;20264;-58
2023/10/04 04:01:05;;;;;;;9.10;5.05;;;;;;;13.30;80.15;98912.63;5111122;28;20262;-58
2023/10/04 04:03:30;;;;;;;13.63;5.95;;;;;;;13.28;79.58;98888.50;5111092;28;20174;-58
2023/10/04 04:05:56;;;;;;;11.93;6.55;;;;;;;13.29;79.57;98898.78;5110896;28;20191;-58
2023/10/04 04:08:22;;;;;;;9.95;5.22;;;;;;;13.29;79.43;98897.97;5111038;28;20184;-58
2023/10/04 04:10:49;;;;;;;10.45;5.28;;;;;;;13.06;79.62;98880.59;5111089;28;20262;-58
2023/10/04 04:13:14;;;;;;;8.10;5.35;;;;;;;13.27;79.05;98912.84;5111049;28;20176;-58
2023/10/04 04:15:40;;;;;;;13.75;5.78;;;;;;;13.39;79.38;98922.34;5111372;28;20188;-58
2023/10/04 04:18:13;;;;;;;9.85;5.45;;;;;;;13.48;77.87;98921.69;5111014;28;20630;-58
2023/10/04 04:20:41;;;;;;;12.38;6.43;;;;;;;13.57;76.59;98908.00;5111080;28;20598;-58
2023/10/04 04:23:10;;;;;;;8.23;5.47;;;;;;;13.42;76.45;98883.16;5110860;28;20187;-58
2023/10/04 04:25:36;;;;;;;12.57;6.13;;;;;;;13.60;76.28;98908.63;5110922;28;20199;-58
2023/10/04 04:28:02;;;;;;;14.52;6.30;;;;;;;13.68;76.13;98911.50;5110896;28;20233;-58
2023/10/04 04:30:31;;;;;;;7.63;4.40;;;;;;;13.60;76.86;98894.81;5110758;28;20191;-58
2023/10/04 04:32:56;;;;;;;9.93;4.60;;;;;;;13.54;76.84;98885.66;5110783;28;20262;-59
2023/10/04 04:40:39;;;;;;;9.38;4.45;;;;;;;13.75;76.65;98925.72;5110663;28;20270;-58
2023/10/04 04:45:53;;;;;;;8.70;4.88;;;;;;;13.74;75.26;98912.81;5113057;28;20208;-58
2023/10/04 04:48:25;;;;;;;8.52;5.20;;;;;;;13.75;75.98;98922.28;5114427;28;20176;-58
2023/10/04 04:50:57;;;;;;;8.75;4.82;;;;;;;13.70;77.08;98932.22;5114741;28;20728;-58
2023/10/04 04:53:27;;;;;;;8.32;5.20;;;;;;;13.81;76.59;98934.84;5114545;28;20250;-58
2023/10/04 04:55:54;;;;;;;8.93;5.82;;;;;;;13.84;76.68;98932.03;5114568;28;20163;-58
2023/10/04 04:58:23;;;;;;;9.80;5.20;;;;;;;13.96;76.89;98931.13;5114435;28;20262;-58
2023/10/04 05:00:55;;;;;;;9.55;5.50;;;;;;;14.08;76.22;98930.22;5114088;28;20715;-58
2023/10/04 05:03:20;;;;;;;10.45;5.20;;;;;;;14.26;75.43;98941.88;5114388;28;20172;-58
2023/10/04 05:05:49;;;;;;;9.35;4.75;;;;;;;14.16;73.96;98910.47;5113889;28;20207;-58
2023/10/04 05:08:17;;;;;;;8.63;4.68;;;;;;;14.25;74.21;98925.44;5114181;28;20176;-58
2023/10/04 05:10:45;;;;;;;12.40;5.15;;;;;;;14.44;73.40;98933.53;5114463;28;20172;-58
2023/10/04 05:13:14;;;;;;;10.05;5.32;;;;;;;14.43;71.99;98912.81;5113730;28;20188;-57
2023/10/04 05:15:42;;;;;;;8.48;4.82;;;;;;;14.35;72.58;98904.75;5113763;28;20192;-58
2023/10/04 05:18:12;;;;;;;8.82;5.60;;;;;;;14.40;73.59;98923.47;5114099;28;20183;-58
2023/10/04 05:20:38;;;;;;;8.25;4.60;;;;;;;14.65;72.48;98939.69;5114086;28;20278;-57
2023/10/04 05:23:04;;;;;;;11.68;5.55;;;;;;;14.51;72.66;98920.84;5113703;28;20175;-58
2023/10/04 05:25:30;;;;;;;9.63;5.25;;;;;;;14.66;73.09;98930.09;5113521;28;20253;-58
2023/10/04 05:28:11;;;;;;;18.13;6.85;;;;;;;14.87;72.43;98938.88;5112695;28;20192;-59
2023/10/04 05:30:38;;;;;;;14.40;6.32;;;;;;;15.01;73.04;98959.47;5101122;28;20239;-58
2023/10/04 05:33:06;;;;;;;12.90;6.20;;;;;;;14.82;73.24;98925.38;5113417;28;20183;-58
2023/10/04 05:35:33;;;;;;;20.48;6.85;;;;;;;15.01;73.89;98964.69;5113852;28;20175;-59
2023/10/04 05:37:59;;;;;;;15.73;6.63;;;;;;;15.01;73.48;98975.97;5070443;28;20185;-58
2023/10/04 05:40:27;;;;;;;13.02;5.88;;;;;;;15.13;74.00;98966.34;5070580;28;20185;-58
2023/10/04 05:42:54;;;;;;;13.07;6.50;;;;;;;15.15;72.46;98927.94;5070453;28;20196;-58
2023/10/04 05:45:21;;;;;;;10.88;5.40;;;;;;;15.26;72.18;98933.97;5070339;28;20349;-58
2023/10/04 05:47:48;;;;;;;11.10;5.57;;;;;;;15.61;71.96;98968.56;5070324;28;20192;-58
2023/10/04 05:50:17;;;;;;;13.30;6.32;;;;;;;15.35;72.88;98937.66;5070392;28;20242;-58
2023/10/04 05:52:44;;;;;;;9.40;6.07;;;;;;;15.57;72.13;98968.94;5030124;28;20194;-58
2023/10/04 05:55:10;;;;;;;12.02;5.95;;;;;;;15.75;71.07;98975.28;5010360;28;20337;-58
2023/10/04 05:57:36;;;;;;;12.23;6.50;;;;;;;15.96;69.76;98976.97;5009774;28;20241;-58
2023/10/04 06:02:58;;;;;;;13.50;6.25;;;;;;;16.11;69.39;98982.72;5010410;28;20641;-58
2023/10/04 06:05:31;;;;;;;13.52;7.30;;;;;;;16.08;68.28;98956.84;5010321;28;20213;-58
2023/10/04 06:07:57;;;;;;;11.40;6.50;;;;;;;16.43;68.17;98984.38;5013441;28;20244;-58
2023/10/04 06:10:24;;;;;;;16.85;7.15;;;;;;;16.26;68.48;98957.97;5010069;28;20194;-58
2023/10/04 06:12:52;;;;;;;15.75;6.70;;;;;;;16.26;68.57;98952.75;5010185;28;20190;-58
2023/10/04 06:15:19;;;;;;;13.70;6.97;;;;;;;16.38;67.64;98985.69;5009102;28;20677;-58
2023/10/04 06:17:46;;;;;;;20.17;7.30;;;;;;;16.21;68.09;98947.09;5010070;28;20250;-58
2023/10/04 06:20:30;;;;;;;14.40;7.20;;;;;;;16.29;68.00;98947.25;5009925;28;20187;-58
2023/10/04 06:23:00;;;;;;;17.98;6.93;;;;;;;16.33;68.73;98949.47;5017013;28;20193;-58
2023/10/04 06:25:29;;;;;;;11.63;7.30;;;;;;;16.69;68.58;98977.81;5028522;28;20263;-58
2023/10/04 06:27:56;;;;;;;14.70;7.25;;;;;;;16.72;67.23;98955.78;5029598;28;20221;-59
2023/10/04 06:30:24;;;;;;;13.82;7.28;;;;;;;16.93;66.92;98977.50;5029650;28;20186;-58
2023/10/04 06:32:56;;;;;;;10.35;5.97;;;;;;;17.03;67.34;98973.97;5029696;28;20178;-58
2023/10/04 06:35:24;;;;;;;11.93;6.40;;;;;;;17.09;65.88;98975.25;5029788;28;20750;-58
2023/10/04 06:38:01;;;;;;;19.00;6.53;;;;;;;17.13;64.82;98958.34;5029571;28;20201;-58
2023/10/04 06:40:30;;;;;;;14.13;7.22;;;;;;;17.33;64.79;98978.34;5031831;28;20600;-58
2023/10/04 06:42:55;;;;;;;12.68;6.22;;;;;;;17.46;63.63;98977.19;5049345;28;20367;-58
2023/10/04 06:45:24;;;;;;;13.65;6.53;;;;;;;17.36;63.26;98946.69;5049295;28;20204;-58
2023/10/04 06:47:51;;;;;;;13.85;6.85;;;;;;;17.30;62.69;98939.38;5049281;28;20327;-58
2023/10/04 06:50:18;;;;;;;9.30;5.65;;;;;;;17.74;62.35;98976.41;5049165;28;20196;-58
2023/10/04 06:52:51;;;;;;;11.18;5.88;;;;;;;17.56;60.65;98946.59;5049156;28;20276;-58
2023/10/04 06:55:20;;;;;;;13.65;6.43;;;;;;;17.94;61.50;98977.25;5049070;28;20182;-58
2023/10/04 06:57:47;;;;;;;18.02;7.13;;;;;;;18.10;61.01;98978.38;5048905;28;20216;-58
2023/10/04 07:00:14;;;;;;;15.98;7.60;;;;;;;18.08;61.61;98979.47;5049042;28;20174;-58
2023/10/04 07:02:47;;;;;;;19.38;7.95;;;;;;;18.16;61.20;98976.97;5075311;28;20597;-58
2023/10/04 07:05:19;;;;;;;27.15;8.27;;;;;;;18.15;60.84;98957.00;5112160;28;20213;-58
2023/10/04 07:07:46;;;;;;;16.20;7.30;;;;;;;18.21;59.80;98938.09;5111701;28;20171;-57
2023/10/04 07:10:15;;;;;;;21.80;8.27;;;;;;;18.48;60.22;98980.16;5111552;28;20176;-57
2023/10/04 07:12:43;;;;;;;27.85;8.40;;;;;;;18.57;60.17;98976.69;5111799;28;20186;-58
2023/10/04 07:15:10;;;;;;;15.80;7.03;;;;;;;18.65;59.54;98972.38;5111446;28;20285;-58
2023/10/04 07:17:38;;;;;;;11.30;5.82;;;;;;;18.69;57.74;98957.19;5111384;28;20174;-58
2023/10/04 07:20:07;;;;;;;13.75;6.85;;;;;;;18.70;58.29;98961.47;5111218;28;20563;-58
2023/10/04 07:22:33;;;;;;;15.13;6.60;;;;;;;18.76;58.50;98946.00;5111575;28;20684;-58
2023/10/04 07:25:01;;;;;;;20.83;7.40;;;;;;;18.80;58.28;98936.06;5111299;28;20183;-58
2023/10/04 07:27:26;;;;;;;14.95;7.32;;;;;;;18.98;58.09;98945.66;5111654;28;20175;-58
2023/10/04 07:29:53;;;;;;;28.20;22.08;;;;;;;19.18;57.91;98976.06;5111565;28;20237;-58
2023/10/04 07:32:20;;;;;;;17.70;10.23;;;;;;;19.03;57.56;98937.34;5111491;28;20300;-58
2023/10/04 07:34:45;;;;;;;15.50;7.97;;;;;;;19.18;57.65;98952.44;5111513;28;20224;-57
2023/10/04 07:37:11;;;;;;;17.75;6.95;;;;;;;19.28;56.97;98957.69;5111465;28;20179;-57
2023/10/04 07:39:36;;;;;;;15.18;6.00;;;;;;;19.42;56.39;98968.50;5111451;28;20647;-57
2023/10/04 07:42:02;;;;;;;12.02;5.55;;;;;;;19.45;56.56;98959.53;5111409;28;20178;-57
2023/10/04 07:44:30;;;;;;;13.88;7.07;;;;;;;19.38;55.70;98933.06;5111446;28;20262;-57
2023/10/04 07:46:59;;;;;;;13.63;6.53;;;;;;;19.48;55.13;98935.63;5111264;28;20249;-57
2023/10/04 07:49:25;;;;;;;11.45;5.53;;;;;;;19.71;54.73;98952.59;5111319;28;20263;-57
2023/10/04 07:51:50;;;;;;;11.27;5.75;;;;;;;19.71;53.69;98960.47;5111284;28;20612;-57
2023/10/04 07:54:18;;;;;;;12.40;5.60;;;;;;;19.43;54.36;98949.19;5111038;28;20171;-57
2023/10/04 07:56:44;;;;;;;11.45;6.30;;;;;;;19.52;54.51;98965.84;5111277;28;20179;-57
2023/10/04 07:59:10;;;;;;;11.57;6.00;;;;;;;19.35;53.92;98928.09;5111203;28;20228;-57
2023/10/04 08:01:39;;;;;;;15.02;6.35;;;;;;;19.51;54.52;98938.78;5111134;28;20239;-57
2023/10/04 08:04:04;;;;;;;14.98;6.05;;;;;;;19.84;53.81;98958.31;5111145;28;20171;-57
2023/10/04 08:06:30;;;;;;;15.15;5.32;;;;;;;19.84;53.17;98939.91;5111079;28;20251;-57
2023/10/04 08:08:55;;;;;;;13.02;5.25;;;;;;;20.11;52.45;98956.44;5067946;28;20250;-57
2023/10/04 08:11:21;;;;;;;12.07;5.57;;;;;;;20.21;52.15;98951.09;5068017;28;20276;-57
2023/10/04 08:13:46;;;;;;;10.93;5.78;;;;;;;20.13;52.11;98930.03;5067853;28;20200;-57
2023/10/04 08:16:13;;;;;;;12.23;5.43;;;;;;;20.34;51.27;98941.03;5068065;28;20176;-57
2023/10/04 08:18:39;;;;;;;10.40;5.88;;;;;;;20.41;50.23;98948.13;5068023;28;20195;-57
2023/10/04 08:21:06;;;;;;;9.32;5.88;;;;;;;20.36;50.94;98932.03;5070850;28;20176;-57
2023/10/04 08:23:32;;;;;;;14.52;6.85;;;;;;;20.57;51.01;98957.97;5072010;28;20193;-57
2023/10/04 08:25:58;;;;;;;18.17;6.72;;;;;;;20.58;50.63;98931.50;5071810;28;20203;-57
2023/10/04 08:28:23;;;;;;;10.82;6.55;;;;;;;20.83;51.47;98956.16;5071808;28;20292;-57
2023/10/04 08:30:51;;;;;;;10.98;6.28;;;;;;;20.85;50.92;98951.56;5071908;28;20207;-57
2023/10/04 08:33:19;;;;;;;13.75;6.80;;;;;;;20.85;50.04;98949.75;5071852;28;20231;-57
2023/10/04 08:35:46;;;;;;;12.23;6.80;;;;;;;21.04;50.72;98943.47;5071677;28;20219;-57
2023/10/04 08:38:12;;;;;;;14.43;7.00;;;;;;;21.09;50.11;98943.84;5071668;28;20188;-57
2023/10/04 08:40:42;;;;;;;21.50;6.82;;;;;;;21.01;49.61;98933.25;5105960;28;20190;-57
2023/10/04 08:43:11;;;;;;;18.73;6.88;;;;;;;21.14;49.28;98944.16;5114700;28;20183;-57
2023/10/04 08:45:36;;;;;;;17.23;6.97;;;;;;;20.98;49.39;98909.91;5114634;28;20191;-57
2023/10/04 08:48:02;;;;;;;15.40;6.85;;;;;;;21.16;49.17;98926.44;5114541;28;20186;-57
2023/10/04 08:50:40;;;;;;;14.40;6.45;;;;;;;21.30;48.60;98939.81;5114504;28;20713;-57
2023/10/04 08:53:14;;;;;;;12.75;6.15;;;;;;;21.38;47.99;98941.66;5114360;28;20525;-57
2023/10/04 08:55:43;;;;;;;15.25;7.22;;;;;;;21.41;48.31;98934.25;5114793;28;20186;-57
2023/10/04 08:58:10;;;;;;;13.02;6.65;;;;;;;21.02;49.09;98887.53;5114364;28;20189;-57
2023/10/04 09:00:39;;;;;;;10.05;6.65;;;;;;;20.99;49.22;98888.66;5114316;28;20202;-57
2023/10/04 09:03:06;;;;;;;14.35;6.72;;;;;;;21.10;49.28;98921.78;5071099;28;20650;-57
2023/10/04 09:05:33;;;;;;;16.63;6.60;;;;;;;21.09;49.10;98889.38;5071054;28;20204;-58
2023/10/04 09:07:58;;;;;;;21.42;6.20;;;;;;;21.46;48.24;98923.22;5071089;28;20372;-57
2023/10/04 09:10:25;;;;;;;14.48;6.25;;;;;;;21.50;48.29;98914.03;5071059;28;20195;-57
2023/10/04 09:12:51;;;;;;;17.08;6.05;;;;;;;21.48;47.99;98900.19;5071056;28;20702;-58
2023/10/04 09:15:16;;;;;;;16.17;6.70;;;;;;;21.32;47.47;98893.06;5070829;28;20203;-57
2023/10/04 09:17:55;;;;;;;11.00;6.80;;;;;;;21.44;47.85;98891.78;5070832;28;20184;-58
2023/10/04 09:20:24;;;;;;;18.50;8.07;;;;;;;21.64;47.87;98913.38;5070954;28;20176;-57
2023/10/04 09:22:50;;;;;;;16.48;6.53;;;;;;;21.73;48.11;98915.91;5070834;28;20196;-57
2023/10/04 09:25:16;;;;;;;17.40;6.53;;;;;;;21.84;47.40;98922.66;5070750;28;20200;-57
2023/10/04 09:27:56;;;;;;;17.77;7.35;;;;;;;21.90;47.06;98922.00;5070615;28;20693;-57
2023/10/04 09:30:26;;;;;;;16.38;6.78;;;;;;;21.96;47.22;98918.75;5070767;28;20172;-57
2023/10/04 09:32:52;;;;;;;16.08;6.85;;;;;;;21.79;47.37;98880.19;5070942;28;20251;-57
2023/10/04 09:35:18;;;;;;;11.52;6.50;;;;;;;22.09;46.78;98911.97;5113720;28;20510;-57
2023/10/04 09:37:45;;;;;;;12.63;6.40;;;;;;;22.07;47.05;98899.94;5113971;28;20203;-58
2023/10/04 09:40:13;;;;;;;17.80;6.63;;;;;;;22.14;46.87;98893.03;5113644;28;20590;-58
2023/10/04 09:42:51;;;;;;;14.25;6.90;;;;;;;22.17;46.50;98876.88;5113532;28;20199;-58
2023/10/04 09:45:20;;;;;;;19.77;8.10;;;;;;;22.39;46.15;98886.75;5113440;28;20203;-56
2023/10/04 09:47:46;;;;;;;13.32;7.88;;;;;;;22.23;45.90;98868.31;5113467;28;20179;-56
2023/10/04 09:50:21;;;;;;;13.90;6.53;;;;;;;22.33;46.33;98897.97;5113377;28;20526;-57
2023/10/04 09:52:46;;;;;;;17.13;6.88;;;;;;;22.38;45.71;98893.81;5113492;28;20167;-57
2023/10/04 09:55:13;;;;;;;20.60;7.80;;;;;;;22.26;46.21;98860.06;5113113;28;20545;-58
2023/10/04 09:57:42;;;;;;;13.82;6.55;;;;;;;22.37;46.13;98860.53;5113358;28;20228;-58
2023/10/04 10:00:12;;;;;;;16.95;8.55;;;;;;;22.62;46.23;98882.44;5113242;28;20199;-58
2023/10/04 10:02:39;;;;;;;15.85;8.43;;;;;;;22.73;45.14;98874.16;5113202;28;20641;-59
2023/10/04 10:05:09;;;;;;;19.23;9.00;;;;;;;22.91;45.71;98887.97;5113179;28;20289;-58
2023/10/04 10:07:36;;;;;;;17.35;8.50;;;;;;;22.86;45.54;98858.59;5113021;28;20676;-58
2023/10/04 10:10:12;;;;;;;13.20;7.82;;;;;;;23.01;45.03;98851.63;5113031;28;20175;-57
2023/10/04 10:12:43;;;;;;;15.65;7.30;;;;;;;23.23;45.10;98872.81;5113058;28;20175;-58
2023/10/04 10:15:09;;;;;;;16.65;8.05;;;;;;;23.33;44.55;98864.69;5113011;28;20190;-57
2023/10/04 10:17:35;;;;;;;20.02;8.18;;;;;;;23.30;43.75;98836.00;5112575;28;20661;-57
2023/10/04 10:20:02;;;;;;;20.30;8.00;;;;;;;23.51;43.71;98854.66;5112795;28;20175;-57
2023/10/04 10:22:27;;;;;;;15.85;7.72;;;;;;;23.61;43.77;98855.25;5112829;28;20167;-58
2023/10/04 10:24:55;;;;;;;17.50;8.73;;;;;;;23.74;44.07;98862.41;5112726;28;20216;-59
2023/10/04 10:27:28;;;;;;;15.40;8.27;;;;;;;23.81;43.69;98865.19;5112589;28;20186;-58
2023/10/04 10:30:02;;;;;;;15.68;7.75;;;;;;;23.90;43.60;98847.47;5112603;28;20190;-58
2023/10/04 10:32:28;;;;;;;16.42;7.45;;;;;;;24.17;43.17;98852.19;5112639;28;20183;-58
2023/10/04 10:35:00;;;;;;;13.85;7.45;;;;;;;24.37;42.96;98852.28;5112557;28;20179;-58
2023/10/04 10:37:26;;;;;;;18.48;8.57;;;;;;;24.39;42.86;98829.09;5112771;28;20637;-59
2023/10/04 10:39:53;;;;;;;16.73;7.05;;;;;;;24.59;42.14;98832.91;5112431;28;20236;-58
2023/10/04 10:42:19;;;;;;;13.68;7.22;;;;;;;24.78;41.69;98831.53;5111958;28;20179;-59
2023/10/04 10:44:46;;;;;;;16.00;6.20;;;;;;;24.84;41.33;98813.06;5112183;28;20178;-58
2023/10/04 10:47:22;;;;;;;13.35;7.32;;;;;;;25.17;41.38;98838.13;5112294;28;20542;-57
2023/10/04 10:50:02;;;;;;;12.48;7.03;;;;;;;25.30;40.43;98837.50;5112167;28;20183;-57
2023/10/04 10:52:38;;;;;;;17.90;7.15;;;;;;;25.24;39.48;98817.84;5112346;28;20175;-58
2023/10/04 10:55:06;;;;;;;16.85;7.32;;;;;;;25.47;39.07;98833.56;5112094;28;20649;-57
2023/10/04 10:57:33;;;;;;;21.15;7.25;;;;;;;25.29;39.43;98806.69;5111960;28;20171;-57
2023/10/04 11:00:11;;;;;;;15.20;6.70;;;;;;;25.26;40.15;98796.47;5111974;28;20171;-58
2023/10/04 11:02:42;;;;;;;11.32;6.47;;;;;;;25.44;39.90;98820.72;5111994;28;20179;-57
2023/10/04 11:05:09;;;;;;;20.90;7.10;;;;;;;25.34;40.15;98796.34;5111514;28;20588;-57
2023/10/04 11:07:36;;;;;;;19.38;6.85;;;;;;;25.63;39.90;98815.59;5111766;28;20645;-57
2023/10/04 11:10:03;;;;;;;20.25;7.82;;;;;;;25.68;39.40;98812.38;5111715;28;20645;-57
2023/10/04 11:12:33;;;;;;;16.35;7.65;;;;;;;25.74;39.45;98798.34;5111847;28;20174;-57
2023/10/04 11:14:59;;;;;;;18.98;6.93;;;;;;;25.91;38.22;98802.41;5111578;28;20183;-57
2023/10/04 11:17:28;;;;;;;17.30;7.40;;;;;;;25.98;38.46;98803.28;5111651;28;20641;-57
2023/10/04 11:19:53;;;;;;;20.48;7.50;;;;;;;26.02;38.90;98817.81;5112047;28;20202;-57
2023/10/04 11:22:19;;;;;;;18.17;7.25;;;;;;;25.89;38.50;98784.00;5111657;28;20175;-57
2023/10/04 11:24:46;;;;;;;15.88;7.07;;;;;;;26.25;38.53;98813.06;5048414;28;20185;-58
2023/10/04 11:27:18;;;;;;;12.45;6.60;;;;;;;26.33;38.52;98808.44;5048496;28;20626;-58
2023/10/04 11:29:44;;;;;;;14.07;7.50;;;;;;;26.41;37.63;98808.25;5048555;28;20671;-57
2023/10/04 11:32:09;;;;;;;14.38;7.72;;;;;;;26.44;37.37;98796.44;5048515;28;20196;-57
2023/10/04 11:34:36;;;;;;;13.57;7.10;;;;;;;26.45;37.36;98785.63;5008712;28;20194;-57
2023/10/04 11:37:02;;;;;;;13.68;7.65;;;;;;;26.50;37.87;98793.84;5008756;28;20205;-58
2023/10/04 11:39:34;;;;;;;13.18;6.78;;;;;;;26.52;37.24;98767.91;5008830;28;20191;-58
2023/10/04 11:42:04;;;;;;;12.90;6.88;;;;;;;26.77;37.06;98810.75;5008851;28;20205;-58